TimeEDT,TemperatureF,Dew PointF,Humidity,Sea Level PressureIn,VisibilityMPH,Wind Direction,Wind SpeedMPH,Gust SpeedMPH,PrecipitationIn,Events,Conditions,WindDirDegrees,DateUTC
12:54 AM,41.0,39.9,96,30.24,-9999.0,Calm,Calm,-,N/A,,Unknown,0,2013-10-31 04:54:00
1:54 AM,42.1,39.9,92,30.22,-9999.0,Calm,Calm,-,N/A,,Unknown,0,2013-10-31 05:54:00
2:54 AM,44.1,43.0,96,30.22,-9999.0,Calm,Calm,-,N/A,,Unknown,0,2013-10-31 06:54:00
3:54 AM,46.0,44.1,93,30.20,-9999.0,Calm,Calm,-,N/A,,Unknown,0,2013-10-31 07:54:00
4:54 AM,46.9,45.0,93,30.18,-9999.0,Calm,Calm,-,N/A,,Unknown,0,2013-10-31 08:54:00
5:54 AM,48.0,46.0,93,30.17,-9999.0,Calm,Calm,-,N/A,,Unknown,0,2013-10-31 09:54:00
6:54 AM,48.9,46.9,93,30.17,-9999.0,Calm,Calm,-,N/A,,Unknown,0,2013-10-31 10:54:00
7:54 AM,51.1,48.9,92,30.15,-9999.0,SW,3.5,-,N/A,,Unknown,230,2013-10-31 11:54:00
8:54 AM,53.1,50.0,89,30.15,-9999.0,Calm,Calm,-,N/A,,Unknown,0,2013-10-31 12:54:00
9:54 AM,57.0,53.1,87,30.13,-9999.0,Calm,Calm,-,N/A,,Unknown,0,2013-10-31 13:54:00
10:54 AM,57.9,53.1,84,30.10,-9999.0,SSW,6.9,-,N/A,,Unknown,200,2013-10-31 14:54:00
11:54 AM,59.0,54.0,83,30.09,-9999.0,Variable,4.6,-,N/A,,Unknown,0,2013-10-31 15:54:00
12:54 PM,59.0,55.9,90,30.04,-9999.0,Calm,Calm,-,0.02,,Unknown,0,2013-10-31 16:54:00
1:54 PM,60.1,55.9,86,30.00,-9999.0,Variable,4.6,-,N/A,,Unknown,0,2013-10-31 17:54:00
2:54 PM,61.0,55.9,83,29.99,-9999.0,South,4.6,-,N/A,,Unknown,180,2013-10-31 18:54:00
3:54 PM,61.0,57.0,87,29.96,-9999.0,Calm,Calm,-,N/A,,Unknown,0,2013-10-31 19:54:00
4:54 PM,61.0,57.0,87,29.94,-9999.0,Calm,Calm,-,N/A,,Unknown,0,2013-10-31 20:54:00
5:54 PM,61.0,57.0,87,29.91,-9999.0,Variable,3.5,-,N/A,,Unknown,0,2013-10-31 21:54:00
6:54 PM,62.1,57.9,86,29.91,-9999.0,SW,3.5,-,N/A,,Unknown,220,2013-10-31 22:54:00
7:54 PM,61.0,57.9,90,29.89,-9999.0,Calm,Calm,-,0.02,,Unknown,0,2013-10-31 23:54:00
8:54 PM,62.1,57.0,84,29.86,-9999.0,SW,8.1,-,0.01,,Unknown,220,2013-11-01 00:54:00
9:54 PM,63.0,55.9,78,29.83,-9999.0,SSW,5.8,-,N/A,,Unknown,200,2013-11-01 01:54:00
10:54 PM,61.0,57.0,87,29.81,-9999.0,SSW,8.1,18.4,0.01,,Unknown,200,2013-11-01 02:54:00
11:54 PM,61.0,57.0,87,29.78,-9999.0,Variable,4.6,-,0.01,,Unknown,0,2013-11-01 03:54:00